TAF KSCK
KSCK 280520Z 2806/2906 VRB03KT 6SM BR FEW250 FM281200 00000KT 2SM BR FEW250 TEMPO 2814/2818 1/4SM FG FM281800 VRB03KT 6SM HZ FEW250=
METAR KSCK
WC KSCK
WS KSCK
WV KSCK